sensor_id;sensor_type;location;lat;lon;timestamp;pressure;altitude;pressure_sealevel;temperature;humidity
45541;BME280;31265;49.680;8.608;2023-02-04T00:00:50;101902.94;;;8.07;100.00
45541;BME280;31265;49.680;8.608;2023-02-04T00:03:18;101900.16;;;8.12;100.00
45541;BME280;31265;49.680;8.608;2023-02-04T00:05:47;101903.19;;;8.03;100.00
45541;BME280;31265;49.680;8.608;2023-02-04T00:08:15;101914.00;;;8.07;100.00
45541;BME280;31265;49.680;8.608;2023-02-04T00:10:47;101910.72;;;8.03;100.00
45541;BME280;31265;49.680;8.608;2023-02-04T00:13:16;101911.22;;;8.12;100.00
45541;BME280;31265;49.680;8.608;2023-02-04T00:15:45;101913.97;;;8.12;100.00
45541;BME280;31265;49.680;8.608;2023-02-04T00:18:13;101926.31;;;8.00;100.00
45541;BME280;31265;49.680;8.608;2023-02-04T00:20:42;101920.28;;;8.07;100.00
45541;BME280;31265;49.680;8.608;2023-02-04T00:23:10;101933.34;;;7.95;100.00
45541;BME280;31265;49.680;8.608;2023-02-04T00:25:39;101932.59;;;8.12;100.00
45541;BME280;31265;49.680;8.608;2023-02-04T00:28:09;101939.13;;;8.03;100.00
45541;BME280;31265;49.680;8.608;2023-02-04T00:30:37;101931.59;;;8.04;100.00
45541;BME280;31265;49.680;8.608;2023-02-04T00:33:06;101942.16;;;8.00;100.00
45541;BME280;31265;49.680;8.608;2023-02-04T00:35:34;101949.94;;;8.07;100.00
45541;BME280;31265;49.680;8.608;2023-02-04T00:38:04;101946.94;;;7.88;100.00
45541;BME280;31265;49.680;8.608;2023-02-04T00:40:32;101934.13;;;7.90;100.00
45541;BME280;31265;49.680;8.608;2023-02-04T00:43:01;101949.44;;;8.03;100.00
45541;BME280;31265;49.680;8.608;2023-02-04T00:45:33;101951.69;;;7.98;100.00
45541;BME280;31265;49.680;8.608;2023-02-04T00:48:01;101958.75;;;7.88;100.00
45541;BME280;31265;49.680;8.608;2023-02-04T00:50:29;101954.25;;;7.74;100.00
45541;BME280;31265;49.680;8.608;2023-02-04T00:52:58;101955.22;;;7.71;100.00
45541;BME280;31265;49.680;8.608;2023-02-04T00:55:29;101959.25;;;7.75;100.00
45541;BME280;31265;49.680;8.608;2023-02-04T00:57:58;101954.97;;;7.86;100.00
45541;BME280;31265;49.680;8.608;2023-02-04T01:00:26;101964.28;;;7.83;100.00
45541;BME280;31265;49.680;8.608;2023-02-04T01:02:57;101956.25;;;7.85;100.00
45541;BME280;31265;49.680;8.608;2023-02-04T01:05:26;101969.06;;;7.77;100.00
45541;BME280;31265;49.680;8.608;2023-02-04T01:07:54;101970.06;;;7.68;100.00
45541;BME280;31265;49.680;8.608;2023-02-04T01:10:24;101979.34;;;7.76;100.00
45541;BME280;31265;49.680;8.608;2023-02-04T01:12:53;101977.59;;;7.67;100.00
45541;BME280;31265;49.680;8.608;2023-02-04T01:15:21;101975.81;;;7.53;100.00
45541;BME280;31265;49.680;8.608;2023-02-04T01:17:49;101970.31;;;7.47;100.00
45541;BME280;31265;49.680;8.608;2023-02-04T01:20:20;101972.81;;;7.45;100.00
45541;BME280;31265;49.680;8.608;2023-02-04T01:22:48;101982.63;;;7.52;100.00
45541;BME280;31265;49.680;8.608;2023-02-04T01:25:17;101976.34;;;7.57;100.00
45541;BME280;31265;49.680;8.608;2023-02-04T01:27:45;101985.88;;;7.56;100.00
45541;BME280;31265;49.680;8.608;2023-02-04T01:30:14;101984.84;;;7.53;100.00
45541;BME280;31265;49.680;8.608;2023-02-04T01:32:42;102004.44;;;7.61;100.00
45541;BME280;31265;49.680;8.608;2023-02-04T01:35:12;102001.47;;;7.65;100.00
45541;BME280;31265;49.680;8.608;2023-02-04T01:37:42;102006.22;;;7.53;100.00
45541;BME280;31265;49.680;8.608;2023-02-04T01:40:11;102000.91;;;7.44;100.00
45541;BME280;31265;49.680;8.608;2023-02-04T01:42:44;102009.47;;;7.46;100.00
45541;BME280;31265;49.680;8.608;2023-02-04T01:45:12;102003.41;;;7.36;100.00
45541;BME280;31265;49.680;8.608;2023-02-04T01:47:41;101997.66;;;7.40;100.00
45541;BME280;31265;49.680;8.608;2023-02-04T01:50:10;102016.72;;;7.38;100.00
45541;BME280;31265;49.680;8.608;2023-02-04T01:52:44;102017.72;;;7.35;100.00
45541;BME280;31265;49.680;8.608;2023-02-04T01:55:18;102018.72;;;7.31;100.00
45541;BME280;31265;49.680;8.608;2023-02-04T01:57:51;102024.00;;;7.29;100.00
45541;BME280;31265;49.680;8.608;2023-02-04T02:00:24;102036.50;;;7.19;100.00
45541;BME280;31265;49.680;8.608;2023-02-04T02:02:54;102022.69;;;7.19;100.00
45541;BME280;31265;49.680;8.608;2023-02-04T02:05:24;102009.88;;;7.16;100.00
45541;BME280;31265;49.680;8.608;2023-02-04T02:07:56;102010.41;;;7.26;100.00
45541;BME280;31265;49.680;8.608;2023-02-04T02:10:26;102012.66;;;7.16;100.00
45541;BME280;31265;49.680;8.608;2023-02-04T02:12:57;102007.66;;;7.20;100.00
45541;BME280;31265;49.680;8.608;2023-02-04T02:15:26;102015.41;;;7.22;100.00
45541;BME280;31265;49.680;8.608;2023-02-04T02:17:55;102010.88;;;7.13;100.00
45541;BME280;31265;49.680;8.608;2023-02-04T02:20:24;102009.91;;;7.22;100.00
45541;BME280;31265;49.680;8.608;2023-02-04T02:23:03;102014.94;;;7.23;100.00
45541;BME280;31265;49.680;8.608;2023-02-04T02:25:37;102003.84;;;7.12;100.00
45541;BME280;31265;49.680;8.608;2023-02-04T02:28:10;102007.09;;;7.05;100.00
45541;BME280;31265;49.680;8.608;2023-02-04T02:30:40;102013.13;;;7.09;100.00
45541;BME280;31265;49.680;8.608;2023-02-04T02:33:11;102015.41;;;7.10;100.00
45541;BME280;31265;49.680;8.608;2023-02-04T02:35:42;102020.19;;;7.21;100.00
45541;BME280;31265;49.680;8.608;2023-02-04T02:38:15;102014.94;;;7.23;100.00
45541;BME280;31265;49.680;8.608;2023-02-04T02:40:45;102025.50;;;7.25;100.00
45541;BME280;31265;49.680;8.608;2023-02-04T02:43:18;102027.72;;;7.15;100.00
45541;BME280;31265;49.680;8.608;2023-02-04T02:45:49;102026.66;;;7.07;100.00
45541;BME280;31265;49.680;8.608;2023-02-04T02:48:21;102020.66;;;7.08;100.00
45541;BME280;31265;49.680;8.608;2023-02-04T02:50:51;102028.19;;;7.08;100.00
45541;BME280;31265;49.680;8.608;2023-02-04T02:53:21;102030.41;;;7.04;100.00
45541;BME280;31265;49.680;8.608;2023-02-04T02:55:50;102030.41;;;6.98;100.00
45541;BME280;31265;49.680;8.608;2023-02-04T02:58:23;102023.34;;;6.92;100.00
45541;BME280;31265;49.680;8.608;2023-02-04T03:00:53;102029.13;;;6.94;100.00
45541;BME280;31265;49.680;8.608;2023-02-04T03:03:26;102038.69;;;6.93;100.00
45541;BME280;31265;49.680;8.608;2023-02-04T03:06:00;102035.13;;;6.86;100.00
45541;BME280;31265;49.680;8.608;2023-02-04T03:08:30;102044.94;;;6.93;100.00
45541;BME280;31265;49.680;8.608;2023-02-04T03:11:00;102038.22;;;7.11;100.00
45541;BME280;31265;49.680;8.608;2023-02-04T03:13:31;102036.78;;;7.27;100.00
45541;BME280;31265;49.680;8.608;2023-02-04T03:15:59;102036.75;;;7.21;100.00
45541;BME280;31265;49.680;8.608;2023-02-04T03:18:28;102037.72;;;7.07;100.00
45541;BME280;31265;49.680;8.608;2023-02-04T03:20:57;102047.44;;;6.91;100.00
45541;BME280;31265;49.680;8.608;2023-02-04T03:23:26;102045.41;;;6.86;100.00
45541;BME280;31265;49.680;8.608;2023-02-04T03:25:55;102064.91;;;6.77;100.00
45541;BME280;31265;49.680;8.608;2023-02-04T03:28:25;102057.91;;;6.76;100.00
45541;BME280;31265;49.680;8.608;2023-02-04T03:30:53;102057.81;;;6.64;100.00
45541;BME280;31265;49.680;8.608;2023-02-04T03:33:26;102063.41;;;6.76;100.00
45541;BME280;31265;49.680;8.608;2023-02-04T03:35:57;102072.84;;;6.58;100.00
45541;BME280;31265;49.680;8.608;2023-02-04T03:38:26;102072.34;;;6.59;100.00
45541;BME280;31265;49.680;8.608;2023-02-04T03:40:57;102079.53;;;6.45;100.00
45541;BME280;31265;49.680;8.608;2023-02-04T03:43:26;102090.28;;;6.43;100.00
45541;BME280;31265;49.680;8.608;2023-02-04T03:45:54;102100.50;;;6.37;100.00
45541;BME280;31265;49.680;8.608;2023-02-04T03:48:23;102108.50;;;6.35;100.00
45541;BME280;31265;49.680;8.608;2023-02-04T03:50:52;102112.53;;;6.34;100.00
45541;BME280;31265;49.680;8.608;2023-02-04T03:53:20;102116.78;;;6.35;100.00
45541;BME280;31265;49.680;8.608;2023-02-04T03:55:49;102109.72;;;6.29;100.00
45541;BME280;31265;49.680;8.608;2023-02-04T03:58:17;102102.94;;;6.24;100.00
45541;BME280;31265;49.680;8.608;2023-02-04T04:00:47;102096.16;;;6.25;100.00
45541;BME280;31265;49.680;8.608;2023-02-04T04:03:15;102100.34;;;6.46;100.00
45541;BME280;31265;49.680;8.608;2023-02-04T04:05:44;102104.38;;;6.51;100.00
45541;BME280;31265;49.680;8.608;2023-02-04T04:08:12;102108.56;;;6.41;100.00
45541;BME280;31265;49.680;8.608;2023-02-04T04:10:41;102116.00;;;6.29;100.00
45541;BME280;31265;49.680;8.608;2023-02-04T04:13:09;102117.91;;;6.17;100.00
45541;BME280;31265;49.680;8.608;2023-02-04T04:15:38;102118.13;;;6.14;100.00
45541;BME280;31265;49.680;8.608;2023-02-04T04:18:08;102117.94;;;6.23;100.00
45541;BME280;31265;49.680;8.608;2023-02-04T04:20:36;102120.06;;;6.08;100.00
45541;BME280;31265;49.680;8.608;2023-02-04T04:23:04;102128.50;;;5.98;100.00
45541;BME280;31265;49.680;8.608;2023-02-04T04:25:33;102129.00;;;5.97;100.00
45541;BME280;31265;49.680;8.608;2023-02-04T04:28:01;102138.00;;;5.97;100.00
45541;BME280;31265;49.680;8.608;2023-02-04T04:30:30;102146.88;;;5.87;100.00
45541;BME280;31265;49.680;8.608;2023-02-04T04:32:58;102143.09;;;5.84;100.00
45541;BME280;31265;49.680;8.608;2023-02-04T04:35:28;102149.56;;;5.81;100.00
45541;BME280;31265;49.680;8.608;2023-02-04T04:37:58;102149.94;;;6.15;100.00
45541;BME280;31265;49.680;8.608;2023-02-04T04:40:26;102159.91;;;6.07;100.00
45541;BME280;31265;49.680;8.608;2023-02-04T04:42:55;102164.28;;;6.19;100.00
45541;BME280;31265;49.680;8.608;2023-02-04T04:45:23;102159.03;;;6.21;100.00
45541;BME280;31265;49.680;8.608;2023-02-04T04:47:52;102163.22;;;6.42;100.00
45541;BME280;31265;49.680;8.608;2023-02-04T04:50:20;102162.69;;;6.38;100.00
45541;BME280;31265;49.680;8.608;2023-02-04T04:52:50;102152.53;;;6.24;100.00
45541;BME280;31265;49.680;8.608;2023-02-04T04:55:21;102146.47;;;6.20;100.00
45541;BME280;31265;49.680;8.608;2023-02-04T04:57:50;102153.59;;;6.32;100.00
45541;BME280;31265;49.680;8.608;2023-02-04T05:00:19;102145.97;;;6.16;100.00
45541;BME280;31265;49.680;8.608;2023-02-04T05:02:48;102153.41;;;6.10;100.00
45541;BME280;31265;49.680;8.608;2023-02-04T05:05:17;102142.84;;;6.08;100.00
45541;BME280;31265;49.680;8.608;2023-02-04T05:07:45;102136.78;;;5.98;100.00
45541;BME280;31265;49.680;8.608;2023-02-04T05:10:16;102150.69;;;5.89;100.00
45541;BME280;31265;49.680;8.608;2023-02-04T05:12:44;102150.53;;;5.78;100.00
45541;BME280;31265;49.680;8.608;2023-02-04T05:15:13;102150.72;;;5.69;100.00
45541;BME280;31265;49.680;8.608;2023-02-04T05:17:41;102160.63;;;5.60;100.00
45541;BME280;31265;49.680;8.608;2023-02-04T05:20:10;102158.28;;;5.53;100.00
45541;BME280;31265;49.680;8.608;2023-02-04T05:22:39;102150.50;;;5.52;100.00
45541;BME280;31265;49.680;8.608;2023-02-04T05:25:07;102160.00;;;5.51;100.00
45541;BME280;31265;49.680;8.608;2023-02-04T05:27:39;102162.91;;;5.42;100.00
45541;BME280;31265;49.680;8.608;2023-02-04T05:30:09;102165.03;;;5.32;100.00
45541;BME280;31265;49.680;8.608;2023-02-04T05:32:39;102174.91;;;5.24;100.00
45541;BME280;31265;49.680;8.608;2023-02-04T05:35:07;102178.06;;;5.16;100.00
45541;BME280;31265;49.680;8.608;2023-02-04T05:37:36;102181.78;;;5.13;100.00
45541;BME280;31265;49.680;8.608;2023-02-04T05:40:06;102189.75;;;5.11;100.00
45541;BME280;31265;49.680;8.608;2023-02-04T05:42:34;102193.75;;;5.10;100.00
45541;BME280;31265;49.680;8.608;2023-02-04T05:45:04;102187.28;;;5.13;100.00
45541;BME280;31265;49.680;8.608;2023-02-04T05:47:32;102191.28;;;5.12;100.00
45541;BME280;31265;49.680;8.608;2023-02-04T05:50:03;102186.72;;;5.09;100.00
45541;BME280;31265;49.680;8.608;2023-02-04T05:52:32;102186.72;;;5.09;100.00
45541;BME280;31265;49.680;8.608;2023-02-04T05:55:02;102184.59;;;5.19;100.00
45541;BME280;31265;49.680;8.608;2023-02-04T05:57:30;102182.28;;;5.12;100.00
45541;BME280;31265;49.680;8.608;2023-02-04T05:59:59;102183.03;;;5.12;100.00
45541;BME280;31265;49.680;8.608;2023-02-04T06:02:39;102187.50;;;5.10;100.00
45541;BME280;31265;49.680;8.608;2023-02-04T06:05:07;102198.22;;;5.08;100.00
45541;BME280;31265;49.680;8.608;2023-02-04T06:07:36;102204.47;;;5.08;100.00
45541;BME280;31265;49.680;8.608;2023-02-04T06:10:06;102206.94;;;5.06;100.00
45541;BME280;31265;49.680;8.608;2023-02-04T06:12:35;102208.66;;;5.04;100.00
45541;BME280;31265;49.680;8.608;2023-02-04T06:15:04;102206.47;;;5.08;100.00
45541;BME280;31265;49.680;8.608;2023-02-04T06:17:33;102224.09;;;5.16;100.00
45541;BME280;31265;49.680;8.608;2023-02-04T06:20:07;102222.91;;;5.37;100.00
45541;BME280;31265;49.680;8.608;2023-02-04T06:22:35;102229.59;;;5.51;100.00
45541;BME280;31265;49.680;8.608;2023-02-04T06:25:05;102233.03;;;5.46;100.00
45541;BME280;31265;49.680;8.608;2023-02-04T06:27:36;102237.84;;;5.51;100.00
45541;BME280;31265;49.680;8.608;2023-02-04T06:30:13;102225.53;;;5.47;100.00
45541;BME280;31265;49.680;8.608;2023-02-04T06:32:53;102234.56;;;5.47;100.00
45541;BME280;31265;49.680;8.608;2023-02-04T06:35:34;102231.63;;;5.36;100.00
45541;BME280;31265;49.680;8.608;2023-02-04T06:38:09;102244.00;;;5.26;100.00
45541;BME280;31265;49.680;8.608;2023-02-04T06:40:44;102240.72;;;5.07;100.00
45541;BME280;31265;49.680;8.608;2023-02-04T06:43:25;102242.94;;;4.88;100.00
45541;BME280;31265;49.680;8.608;2023-02-04T06:46:00;102241.41;;;4.72;100.00
45541;BME280;31265;49.680;8.608;2023-02-04T06:48:34;102245.03;;;4.63;100.00
45541;BME280;31265;49.680;8.608;2023-02-04T06:51:14;102234.88;;;4.55;100.00
45541;BME280;31265;49.680;8.608;2023-02-04T06:53:44;102242.84;;;4.52;100.00
45541;BME280;31265;49.680;8.608;2023-02-04T06:56:12;102249.09;;;4.53;100.00
45541;BME280;31265;49.680;8.608;2023-02-04T06:58:40;102251.56;;;4.51;100.00
45541;BME280;31265;49.680;8.608;2023-02-04T07:01:19;102256.09;;;4.54;100.00
45541;BME280;31265;49.680;8.608;2023-02-04T07:04:02;102257.91;;;4.57;100.00
45541;BME280;31265;49.680;8.608;2023-02-04T07:06:32;102267.19;;;4.60;100.00
45541;BME280;31265;49.680;8.608;2023-02-04T07:09:05;102271.28;;;4.64;100.00
45541;BME280;31265;49.680;8.608;2023-02-04T07:11:33;102279.06;;;4.66;100.00
45541;BME280;31265;49.680;8.608;2023-02-04T07:14:02;102278.59;;;4.67;100.00
45541;BME280;31265;49.680;8.608;2023-02-04T07:16:30;102279.75;;;4.76;100.00
45541;BME280;31265;49.680;8.608;2023-02-04T07:18:58;102290.38;;;4.83;100.00
45541;BME280;31265;49.680;8.608;2023-02-04T07:21:26;102291.88;;;4.84;100.00
45541;BME280;31265;49.680;8.608;2023-02-04T07:23:56;102289.22;;;4.89;100.00
45541;BME280;31265;49.680;8.608;2023-02-04T07:26:24;102294.34;;;4.96;100.00
45541;BME280;31265;49.680;8.608;2023-02-04T07:28:53;102302.22;;;5.04;100.00
45541;BME280;31265;49.680;8.608;2023-02-04T07:31:21;102301.66;;;5.14;100.00
45541;BME280;31265;49.680;8.608;2023-02-04T07:33:50;102309.41;;;5.31;100.00
45541;BME280;31265;49.680;8.608;2023-02-04T07:36:18;102304.53;;;5.41;100.00
45541;BME280;31265;49.680;8.608;2023-02-04T07:38:47;102312.47;;;5.53;100.00
45541;BME280;31265;49.680;8.608;2023-02-04T07:41:16;102313.63;;;5.62;100.00
45541;BME280;31265;49.680;8.608;2023-02-04T07:43:45;102324.69;;;5.67;100.00
45541;BME280;31265;49.680;8.608;2023-02-04T07:46:14;102327.06;;;5.74;100.00
45541;BME280;31265;49.680;8.608;2023-02-04T07:48:42;102329.13;;;5.79;100.00
45541;BME280;31265;49.680;8.608;2023-02-04T07:51:10;102331.38;;;5.81;100.00
45541;BME280;31265;49.680;8.608;2023-02-04T07:53:39;102337.19;;;5.83;100.00
45541;BME280;31265;49.680;8.608;2023-02-04T07:56:07;102339.53;;;5.90;100.00
45541;BME280;31265;49.680;8.608;2023-02-04T07:58:37;102351.50;;;6.02;100.00
45541;BME280;31265;49.680;8.608;2023-02-04T08:01:06;102354.59;;;6.10;100.00
45541;BME280;31265;49.680;8.608;2023-02-04T08:03:35;102351.84;;;6.10;100.00
45541;BME280;31265;49.680;8.608;2023-02-04T08:06:07;102350.69;;;6.16;100.00
45541;BME280;31265;49.680;8.608;2023-02-04T08:08:35;102356.88;;;6.11;100.00
45541;BME280;31265;49.680;8.608;2023-02-04T08:11:04;102364.66;;;6.13;100.00
45541;BME280;31265;49.680;8.608;2023-02-04T08:13:32;102356.38;;;6.13;100.00
45541;BME280;31265;49.680;8.608;2023-02-04T08:16:02;102362.88;;;6.10;100.00
45541;BME280;31265;49.680;8.608;2023-02-04T08:18:31;102360.13;;;6.10;100.00
45541;BME280;31265;49.680;8.608;2023-02-04T08:21:00;102362.41;;;6.11;100.00
45541;BME280;31265;49.680;8.608;2023-02-04T08:23:31;102372.25;;;6.18;100.00
45541;BME280;31265;49.680;8.608;2023-02-04T08:25:59;102374.94;;;6.33;100.00
45541;BME280;31265;49.680;8.608;2023-02-04T08:28:28;102379.28;;;6.39;100.00
45541;BME280;31265;49.680;8.608;2023-02-04T08:30:59;102387.69;;;6.51;100.00
45541;BME280;31265;49.680;8.608;2023-02-04T08:33:28;102390.47;;;6.51;100.00
45541;BME280;31265;49.680;8.608;2023-02-04T08:35:56;102393.41;;;6.47;100.00
45541;BME280;31265;49.680;8.608;2023-02-04T08:38:25;102387.41;;;6.49;100.00
45541;BME280;31265;49.680;8.608;2023-02-04T08:40:54;102394.25;;;6.53;100.00
45541;BME280;31265;49.680;8.608;2023-02-04T08:43:22;102395.00;;;6.54;100.00
45541;BME280;31265;49.680;8.608;2023-02-04T08:45:51;102397.53;;;6.57;100.00
45541;BME280;31265;49.680;8.608;2023-02-04T08:48:20;102404.78;;;6.55;100.00
45541;BME280;31265;49.680;8.608;2023-02-04T08:50:50;102405.19;;;6.68;100.00
45541;BME280;31265;49.680;8.608;2023-02-04T08:53:18;102409.59;;;6.80;100.00
45541;BME280;31265;49.680;8.608;2023-02-04T08:55:46;102413.44;;;6.88;100.00
45541;BME280;31265;49.680;8.608;2023-02-04T08:58:15;102408.47;;;6.93;100.00
45541;BME280;31265;49.680;8.608;2023-02-04T09:00:44;102414.50;;;7.17;100.00
45541;BME280;31265;49.680;8.608;2023-02-04T09:03:13;102420.81;;;7.23;100.00
45541;BME280;31265;49.680;8.608;2023-02-04T09:05:41;102419.47;;;7.13;100.00
45541;BME280;31265;49.680;8.608;2023-02-04T09:08:13;102427.47;;;7.11;100.00
45541;BME280;31265;49.680;8.608;2023-02-04T09:10:42;102427.19;;;7.35;100.00
45541;BME280;31265;49.680;8.608;2023-02-04T09:13:11;102431.31;;;7.45;100.00
45541;BME280;31265;49.680;8.608;2023-02-04T09:15:40;102435.19;;;7.59;100.00
45541;BME280;31265;49.680;8.608;2023-02-04T09:18:08;102437.03;;;7.73;100.00
45541;BME280;31265;49.680;8.608;2023-02-04T09:20:42;102439.03;;;7.67;100.00
45541;BME280;31265;49.680;8.608;2023-02-04T09:23:13;102444.38;;;7.77;100.00
45541;BME280;31265;49.680;8.608;2023-02-04T09:25:43;102444.59;;;7.73;100.00
45541;BME280;31265;49.680;8.608;2023-02-04T09:28:13;102439.75;;;7.36;100.00
45541;BME280;31265;49.680;8.608;2023-02-04T09:30:43;102427.84;;;7.24;100.00
45541;BME280;31265;49.680;8.608;2023-02-04T09:33:13;102426.56;;;7.20;100.00
45541;BME280;31265;49.680;8.608;2023-02-04T09:35:43;102434.97;;;7.37;100.00
45541;BME280;31265;49.680;8.608;2023-02-04T09:38:11;102432.06;;;7.78;100.00
45541;BME280;31265;49.680;8.608;2023-02-04T09:40:51;102434.97;;;8.00;100.00
45541;BME280;31265;49.680;8.608;2023-02-04T09:43:24;102440.63;;;8.23;100.00
45541;BME280;31265;49.680;8.608;2023-02-04T09:45:53;102452.16;;;8.15;100.00
45541;BME280;31265;49.680;8.608;2023-02-04T09:48:23;102456.22;;;8.26;100.00
45541;BME280;31265;49.680;8.608;2023-02-04T09:50:52;102459.78;;;8.26;100.00
45541;BME280;31265;49.680;8.608;2023-02-04T09:53:29;102467.28;;;8.26;100.00
45541;BME280;31265;49.680;8.608;2023-02-04T09:56:01;102467.06;;;8.29;100.00
45541;BME280;31265;49.680;8.608;2023-02-04T09:58:32;102474.66;;;8.34;100.00
45541;BME280;31265;49.680;8.608;2023-02-04T10:01:10;102464.56;;;8.31;100.00
45541;BME280;31265;49.680;8.608;2023-02-04T10:03:40;102473.91;;;8.34;100.00
45541;BME280;31265;49.680;8.608;2023-02-04T10:06:16;102470.50;;;8.56;100.00
45541;BME280;31265;49.680;8.608;2023-02-04T10:08:45;102471.53;;;8.58;100.00
45541;BME280;31265;49.680;8.608;2023-02-04T10:11:17;102479.31;;;8.54;100.00
45541;BME280;31265;49.680;8.608;2023-02-04T10:13:49;102477.00;;;8.47;100.00
45541;BME280;31265;49.680;8.608;2023-02-04T10:16:21;102478.75;;;8.50;100.00
45541;BME280;31265;49.680;8.608;2023-02-04T10:18:56;102476.00;;;8.50;100.00
45541;BME280;31265;49.680;8.608;2023-02-04T10:21:29;102483.22;;;8.36;100.00
45541;BME280;31265;49.680;8.608;2023-02-04T10:24:00;102485.63;;;8.60;100.00
45541;BME280;31265;49.680;8.608;2023-02-04T10:26:32;102481.28;;;8.48;100.00
45541;BME280;31265;49.680;8.608;2023-02-04T10:29:03;102483.78;;;8.46;100.00
45541;BME280;31265;49.680;8.608;2023-02-04T10:31:37;102486.97;;;8.82;100.00
45541;BME280;31265;49.680;8.608;2023-02-04T10:34:10;102494.91;;;8.57;100.00
45541;BME280;31265;49.680;8.608;2023-02-04T10:36:41;102494.94;;;8.63;100.00
45541;BME280;31265;49.680;8.608;2023-02-04T10:39:13;102500.72;;;8.59;100.00
45541;BME280;31265;49.680;8.608;2023-02-04T10:41:59;102502.28;;;8.77;100.00
45541;BME280;31265;49.680;8.608;2023-02-04T10:44:30;102505.34;;;8.85;100.00
45541;BME280;31265;49.680;8.608;2023-02-04T10:47:00;102496.69;;;8.60;100.00
45541;BME280;31265;49.680;8.608;2023-02-04T10:49:29;102494.25;;;8.31;100.00
45541;BME280;31265;49.680;8.608;2023-02-04T10:52:00;102497.03;;;8.36;100.00
45541;BME280;31265;49.680;8.608;2023-02-04T10:54:36;102494.06;;;8.40;100.00
45541;BME280;31265;49.680;8.608;2023-02-04T10:57:17;102499.78;;;8.31;100.00
45541;BME280;31265;49.680;8.608;2023-02-04T10:59:50;102494.44;;;8.22;100.00
45541;BME280;31265;49.680;8.608;2023-02-04T11:02:42;102499.72;;;8.25;100.00
45541;BME280;31265;49.680;8.608;2023-02-04T11:05:14;102499.69;;;8.19;100.00
45541;BME280;31265;49.680;8.608;2023-02-04T11:07:44;102491.13;;;8.17;100.00
45541;BME280;31265;49.680;8.608;2023-02-04T11:10:15;102493.84;;;8.44;100.00
45541;BME280;31265;49.680;8.608;2023-02-04T11:12:58;102488.72;;;8.85;100.00
45541;BME280;31265;49.680;8.608;2023-02-04T11:15:42;102488.59;;;9.22;100.00
45541;BME280;31265;49.680;8.608;2023-02-04T11:18:25;102485.84;;;9.39;100.00
45541;BME280;31265;49.680;8.608;2023-02-04T11:20:57;102484.59;;;9.46;100.00
45541;BME280;31265;49.680;8.608;2023-02-04T11:23:32;102489.56;;;9.14;100.00
45541;BME280;31265;49.680;8.608;2023-02-04T11:26:07;102493.56;;;9.01;100.00
45541;BME280;31265;49.680;8.608;2023-02-04T11:28:47;102493.91;;;9.48;100.00
45541;BME280;31265;49.680;8.608;2023-02-04T11:31:41;102496.94;;;9.51;100.00
45541;BME280;31265;49.680;8.608;2023-02-04T11:34:26;102495.44;;;9.38;100.00
45541;BME280;31265;49.680;8.608;2023-02-04T11:37:02;102489.91;;;9.50;100.00
45541;BME280;31265;49.680;8.608;2023-02-04T11:39:33;102488.91;;;9.58;100.00
45541;BME280;31265;49.680;8.608;2023-02-04T11:42:03;102490.41;;;9.48;100.00
45541;BME280;31265;49.680;8.608;2023-02-04T11:44:34;102495.44;;;9.38;100.00
45541;BME280;31265;49.680;8.608;2023-02-04T11:47:06;102493.59;;;9.07;100.00
45541;BME280;31265;49.680;8.608;2023-02-04T11:49:35;102491.09;;;9.15;100.00
45541;BME280;31265;49.680;8.608;2023-02-04T11:52:05;102489.78;;;8.93;100.00
45541;BME280;31265;49.680;8.608;2023-02-04T11:54:35;102492.75;;;8.84;100.00
45541;BME280;31265;49.680;8.608;2023-02-04T11:57:03;102485.72;;;8.83;100.00
45541;BME280;31265;49.680;8.608;2023-02-04T11:59:33;102483.94;;;8.80;100.00
45541;BME280;31265;49.680;8.608;2023-02-04T12:02:13;102486.78;;;9.02;100.00
45541;BME280;31265;49.680;8.608;2023-02-04T12:04:52;102485.84;;;9.28;100.00
45541;BME280;31265;49.680;8.608;2023-02-04T12:07:24;102497.22;;;9.58;100.00
45541;BME280;31265;49.680;8.608;2023-02-04T12:09:56;102492.91;;;9.52;100.00
45541;BME280;31265;49.680;8.608;2023-02-04T12:12:29;102492.41;;;9.36;100.00
45541;BME280;31265;49.680;8.608;2023-02-04T12:15:13;102497.97;;;9.53;100.00
45541;BME280;31265;49.680;8.608;2023-02-04T12:17:43;102496.66;;;9.20;100.00
45541;BME280;31265;49.680;8.608;2023-02-04T12:20:13;102475.50;;;9.29;100.00
45541;BME280;31265;49.680;8.608;2023-02-04T12:22:41;102486.59;;;9.29;100.00
45541;BME280;31265;49.680;8.608;2023-02-04T12:25:10;102491.88;;;9.21;100.00
45541;BME280;31265;49.680;8.608;2023-02-04T12:27:44;102498.97;;;9.56;100.00
45541;BME280;31265;49.680;8.608;2023-02-04T12:30:13;102494.16;;;9.28;100.00
45541;BME280;31265;49.680;8.608;2023-02-04T12:32:44;102498.16;;;9.21;100.00
45541;BME280;31265;49.680;8.608;2023-02-04T12:35:12;102505.25;;;9.51;100.00
45541;BME280;31265;49.680;8.608;2023-02-04T12:37:41;102496.94;;;9.45;100.00
45541;BME280;31265;49.680;8.608;2023-02-04T12:40:14;102497.88;;;9.14;100.00
45541;BME280;31265;49.680;8.608;2023-02-04T12:42:43;102493.56;;;8.96;100.00
45541;BME280;31265;49.680;8.608;2023-02-04T12:45:15;102498.84;;;8.94;100.00
45541;BME280;31265;49.680;8.608;2023-02-04T12:47:43;102501.88;;;9.01;100.00
45541;BME280;31265;49.680;8.608;2023-02-04T12:50:14;102507.41;;;9.01;100.00
45541;BME280;31265;49.680;8.608;2023-02-04T12:52:49;102504.75;;;9.35;100.00
45541;BME280;31265;49.680;8.608;2023-02-04T12:55:19;102510.06;;;9.56;100.00
45541;BME280;31265;49.680;8.608;2023-02-04T12:57:48;102513.59;;;9.73;100.00
45541;BME280;31265;49.680;8.608;2023-02-04T13:00:20;102511.09;;;9.69;100.00
45541;BME280;31265;49.680;8.608;2023-02-04T13:02:49;102508.28;;;9.41;98.11
45541;BME280;31265;49.680;8.608;2023-02-04T13:05:18;102517.63;;;9.61;100.00
45541;BME280;31265;49.680;8.608;2023-02-04T13:07:46;102505.28;;;9.84;100.00